sensor_id;sensor_type;location;lat;lon;timestamp;P1;durP1;ratioP1;P2;durP2;ratioP2
16792;SDS011;8513;42.662;23.350;2023-02-22T00:00:27;15.57;;;10.13;;
16792;SDS011;8513;42.662;23.350;2023-02-22T00:05:42;12.52;;;8.90;;
16792;SDS011;8513;42.662;23.350;2023-02-22T00:08:11;12.50;;;9.37;;
16792;SDS011;8513;42.662;23.350;2023-02-22T00:11:06;12.30;;;8.83;;
16792;SDS011;8513;42.662;23.350;2023-02-22T00:13:58;10.80;;;8.73;;
16792;SDS011;8513;42.662;23.350;2023-02-22T00:16:49;13.57;;;8.27;;
16792;SDS011;8513;42.662;23.350;2023-02-22T00:19:15;9.87;;;8.30;;
16792;SDS011;8513;42.662;23.350;2023-02-22T00:21:41;10.73;;;8.57;;
16792;SDS011;8513;42.662;23.350;2023-02-22T00:24:08;11.40;;;8.67;;
16792;SDS011;8513;42.662;23.350;2023-02-22T00:26:48;12.07;;;8.53;;
16792;SDS011;8513;42.662;23.350;2023-02-22T00:29:21;10.70;;;9.27;;
16792;SDS011;8513;42.662;23.350;2023-02-22T00:31:47;12.80;;;8.77;;
16792;SDS011;8513;42.662;23.350;2023-02-22T00:34:13;12.60;;;9.07;;
16792;SDS011;8513;42.662;23.350;2023-02-22T00:36:43;12.03;;;8.40;;
16792;SDS011;8513;42.662;23.350;2023-02-22T00:39:09;10.40;;;8.38;;
16792;SDS011;8513;42.662;23.350;2023-02-22T00:41:35;10.80;;;8.43;;
16792;SDS011;8513;42.662;23.350;2023-02-22T00:44:00;12.32;;;8.88;;
16792;SDS011;8513;42.662;23.350;2023-02-22T00:46:26;12.32;;;8.13;;
16792;SDS011;8513;42.662;23.350;2023-02-22T00:48:51;13.73;;;8.80;;
16792;SDS011;8513;42.662;23.350;2023-02-22T00:51:16;13.80;;;8.17;;
16792;SDS011;8513;42.662;23.350;2023-02-22T00:53:43;13.40;;;8.53;;
16792;SDS011;8513;42.662;23.350;2023-02-22T00:56:09;11.40;;;8.50;;
16792;SDS011;8513;42.662;23.350;2023-02-22T00:58:35;13.07;;;8.40;;
16792;SDS011;8513;42.662;23.350;2023-02-22T01:01:01;11.83;;;8.33;;
16792;SDS011;8513;42.662;23.350;2023-02-22T01:03:26;10.38;;;8.25;;
16792;SDS011;8513;42.662;23.350;2023-02-22T01:05:51;11.77;;;9.03;;
16792;SDS011;8513;42.662;23.350;2023-02-22T01:08:17;12.47;;;8.60;;
16792;SDS011;8513;42.662;23.350;2023-02-22T01:10:43;14.57;;;8.90;;
16792;SDS011;8513;42.662;23.350;2023-02-22T01:13:09;12.57;;;9.10;;
16792;SDS011;8513;42.662;23.350;2023-02-22T01:15:37;11.15;;;8.50;;
16792;SDS011;8513;42.662;23.350;2023-02-22T01:18:05;14.02;;;9.52;;
16792;SDS011;8513;42.662;23.350;2023-02-22T01:20:31;15.10;;;10.65;;
16792;SDS011;8513;42.662;23.350;2023-02-22T01:22:57;12.27;;;9.37;;
16792;SDS011;8513;42.662;23.350;2023-02-22T01:25:26;12.20;;;9.03;;
16792;SDS011;8513;42.662;23.350;2023-02-22T01:27:53;12.57;;;8.67;;
16792;SDS011;8513;42.662;23.350;2023-02-22T01:30:20;11.07;;;8.80;;
16792;SDS011;8513;42.662;23.350;2023-02-22T01:32:47;14.83;;;9.13;;
16792;SDS011;8513;42.662;23.350;2023-02-22T01:35:16;15.30;;;9.47;;
16792;SDS011;8513;42.662;23.350;2023-02-22T01:37:44;12.70;;;8.57;;
16792;SDS011;8513;42.662;23.350;2023-02-22T01:40:14;14.13;;;9.57;;
16792;SDS011;8513;42.662;23.350;2023-02-22T01:42:42;12.73;;;8.77;;
16792;SDS011;8513;42.662;23.350;2023-02-22T01:48:16;12.37;;;9.07;;
16792;SDS011;8513;42.662;23.350;2023-02-22T01:50:51;12.47;;;9.23;;
16792;SDS011;8513;42.662;23.350;2023-02-22T01:53:18;11.97;;;8.93;;
16792;SDS011;8513;42.662;23.350;2023-02-22T01:55:47;10.57;;;8.80;;
16792;SDS011;8513;42.662;23.350;2023-02-22T01:58:14;14.97;;;9.77;;
16792;SDS011;8513;42.662;23.350;2023-02-22T02:00:42;11.77;;;9.17;;
16792;SDS011;8513;42.662;23.350;2023-02-22T02:03:13;12.47;;;9.70;;
16792;SDS011;8513;42.662;23.350;2023-02-22T02:05:43;11.17;;;9.00;;
16792;SDS011;8513;42.662;23.350;2023-02-22T02:08:25;13.80;;;9.00;;
16792;SDS011;8513;42.662;23.350;2023-02-22T02:10:52;15.43;;;8.70;;
16792;SDS011;8513;42.662;23.350;2023-02-22T02:13:19;13.47;;;9.43;;
16792;SDS011;8513;42.662;23.350;2023-02-22T02:15:45;14.93;;;9.37;;
16792;SDS011;8513;42.662;23.350;2023-02-22T02:18:11;12.07;;;9.73;;
16792;SDS011;8513;42.662;23.350;2023-02-22T02:40:28;13.23;;;8.70;;
16792;SDS011;8513;42.662;23.350;2023-02-22T02:48:57;14.33;;;9.60;;
16792;SDS011;8513;42.662;23.350;2023-02-22T02:51:30;15.40;;;9.70;;
16792;SDS011;8513;42.662;23.350;2023-02-22T02:54:01;13.77;;;9.50;;
16792;SDS011;8513;42.662;23.350;2023-02-22T02:56:28;13.93;;;9.23;;
16792;SDS011;8513;42.662;23.350;2023-02-22T02:58:55;11.67;;;9.20;;
16792;SDS011;8513;42.662;23.350;2023-02-22T03:01:41;11.90;;;9.23;;
16792;SDS011;8513;42.662;23.350;2023-02-22T03:12:14;15.20;;;10.10;;
16792;SDS011;8513;42.662;23.350;2023-02-22T03:19:49;12.63;;;8.93;;
16792;SDS011;8513;42.662;23.350;2023-02-22T03:22:30;15.43;;;9.63;;
16792;SDS011;8513;42.662;23.350;2023-02-22T03:25:02;12.53;;;8.37;;
16792;SDS011;8513;42.662;23.350;2023-02-22T03:30:01;13.37;;;9.10;;
16792;SDS011;8513;42.662;23.350;2023-02-22T03:32:32;17.50;;;9.60;;
16792;SDS011;8513;42.662;23.350;2023-02-22T03:35:05;17.10;;;9.67;;
16792;SDS011;8513;42.662;23.350;2023-02-22T03:37:37;14.03;;;9.57;;
16792;SDS011;8513;42.662;23.350;2023-02-22T03:40:06;15.73;;;9.13;;
16792;SDS011;8513;42.662;23.350;2023-02-22T03:42:40;14.57;;;10.20;;
16792;SDS011;8513;42.662;23.350;2023-02-22T03:45:12;15.10;;;10.43;;
16792;SDS011;8513;42.662;23.350;2023-02-22T03:47:40;18.70;;;9.70;;
16792;SDS011;8513;42.662;23.350;2023-02-22T03:50:11;15.97;;;9.63;;
16792;SDS011;8513;42.662;23.350;2023-02-22T03:52:39;12.33;;;8.87;;
16792;SDS011;8513;42.662;23.350;2023-02-22T03:55:07;13.67;;;9.10;;
16792;SDS011;8513;42.662;23.350;2023-02-22T03:57:36;18.53;;;9.63;;
16792;SDS011;8513;42.662;23.350;2023-02-22T04:00:05;16.80;;;9.83;;
16792;SDS011;8513;42.662;23.350;2023-02-22T04:02:32;16.10;;;10.87;;
16792;SDS011;8513;42.662;23.350;2023-02-22T04:04:58;19.73;;;11.00;;
16792;SDS011;8513;42.662;23.350;2023-02-22T04:07:23;17.43;;;11.10;;
16792;SDS011;8513;42.662;23.350;2023-02-22T04:09:49;18.37;;;11.90;;
16792;SDS011;8513;42.662;23.350;2023-02-22T04:12:15;16.00;;;9.80;;
16792;SDS011;8513;42.662;23.350;2023-02-22T04:14:40;17.93;;;9.73;;
16792;SDS011;8513;42.662;23.350;2023-02-22T04:17:06;17.00;;;9.33;;
16792;SDS011;8513;42.662;23.350;2023-02-22T04:19:31;17.50;;;9.50;;
16792;SDS011;8513;42.662;23.350;2023-02-22T04:21:56;16.43;;;9.73;;
16792;SDS011;8513;42.662;23.350;2023-02-22T04:24:22;18.57;;;9.27;;
16792;SDS011;8513;42.662;23.350;2023-02-22T04:26:48;22.27;;;9.67;;
16792;SDS011;8513;42.662;23.350;2023-02-22T04:29:13;21.83;;;9.57;;
16792;SDS011;8513;42.662;23.350;2023-02-22T04:31:39;16.43;;;8.57;;
16792;SDS011;8513;42.662;23.350;2023-02-22T04:34:04;16.13;;;8.20;;
16792;SDS011;8513;42.662;23.350;2023-02-22T04:36:30;17.83;;;7.67;;
16792;SDS011;8513;42.662;23.350;2023-02-22T04:38:56;13.53;;;7.27;;
16792;SDS011;8513;42.662;23.350;2023-02-22T04:41:22;11.83;;;7.10;;
16792;SDS011;8513;42.662;23.350;2023-02-22T04:43:47;14.20;;;8.13;;
16792;SDS011;8513;42.662;23.350;2023-02-22T04:46:13;11.73;;;7.17;;
16792;SDS011;8513;42.662;23.350;2023-02-22T04:48:38;14.83;;;8.10;;
16792;SDS011;8513;42.662;23.350;2023-02-22T04:51:04;13.30;;;7.87;;
16792;SDS011;8513;42.662;23.350;2023-02-22T04:53:30;11.83;;;7.77;;
16792;SDS011;8513;42.662;23.350;2023-02-22T04:55:56;12.17;;;8.40;;
16792;SDS011;8513;42.662;23.350;2023-02-22T04:58:21;13.77;;;8.03;;
16792;SDS011;8513;42.662;23.350;2023-02-22T05:00:47;15.53;;;9.73;;
16792;SDS011;8513;42.662;23.350;2023-02-22T05:03:12;13.57;;;9.10;;
16792;SDS011;8513;42.662;23.350;2023-02-22T05:05:38;14.87;;;10.07;;
16792;SDS011;8513;42.662;23.350;2023-02-22T05:08:03;14.17;;;9.63;;
16792;SDS011;8513;42.662;23.350;2023-02-22T05:10:29;13.07;;;9.87;;
16792;SDS011;8513;42.662;23.350;2023-02-22T05:12:54;17.27;;;9.23;;
16792;SDS011;8513;42.662;23.350;2023-02-22T05:15:20;15.67;;;10.00;;
16792;SDS011;8513;42.662;23.350;2023-02-22T05:17:48;18.50;;;10.60;;
16792;SDS011;8513;42.662;23.350;2023-02-22T05:20:47;14.27;;;9.73;;
16792;SDS011;8513;42.662;23.350;2023-02-22T05:23:06;19.30;;;10.73;;
16792;SDS011;8513;42.662;23.350;2023-02-22T05:25:31;17.77;;;12.17;;
16792;SDS011;8513;42.662;23.350;2023-02-22T05:28:02;20.03;;;11.17;;
16792;SDS011;8513;42.662;23.350;2023-02-22T05:30:31;18.30;;;10.50;;
16792;SDS011;8513;42.662;23.350;2023-02-22T05:32:58;14.23;;;10.60;;
16792;SDS011;8513;42.662;23.350;2023-02-22T05:35:24;17.50;;;11.70;;
16792;SDS011;8513;42.662;23.350;2023-02-22T05:37:50;21.47;;;12.87;;
16792;SDS011;8513;42.662;23.350;2023-02-22T05:40:17;20.73;;;12.70;;
16792;SDS011;8513;42.662;23.350;2023-02-22T05:42:44;22.00;;;13.00;;
16792;SDS011;8513;42.662;23.350;2023-02-22T05:45:13;27.03;;;12.83;;
16792;SDS011;8513;42.662;23.350;2023-02-22T05:47:40;23.03;;;12.93;;
16792;SDS011;8513;42.662;23.350;2023-02-22T05:50:06;22.47;;;12.73;;
16792;SDS011;8513;42.662;23.350;2023-02-22T05:52:32;19.93;;;12.00;;
16792;SDS011;8513;42.662;23.350;2023-02-22T05:54:57;20.20;;;11.53;;
16792;SDS011;8513;42.662;23.350;2023-02-22T05:57:23;17.97;;;11.70;;
16792;SDS011;8513;42.662;23.350;2023-02-22T05:59:48;25.03;;;12.23;;
16792;SDS011;8513;42.662;23.350;2023-02-22T06:02:15;26.90;;;12.97;;
16792;SDS011;8513;42.662;23.350;2023-02-22T06:04:44;26.00;;;13.23;;
16792;SDS011;8513;42.662;23.350;2023-02-22T06:07:10;29.30;;;14.07;;
16792;SDS011;8513;42.662;23.350;2023-02-22T06:09:35;31.17;;;13.87;;
16792;SDS011;8513;42.662;23.350;2023-02-22T06:12:00;45.97;;;15.03;;
16792;SDS011;8513;42.662;23.350;2023-02-22T06:14:26;30.80;;;13.93;;
16792;SDS011;8513;42.662;23.350;2023-02-22T06:16:52;29.77;;;15.37;;
16792;SDS011;8513;42.662;23.350;2023-02-22T06:19:19;50.33;;;17.37;;
16792;SDS011;8513;42.662;23.350;2023-02-22T06:21:48;25.80;;;14.00;;
16792;SDS011;8513;42.662;23.350;2023-02-22T06:24:21;39.37;;;18.67;;
16792;SDS011;8513;42.662;23.350;2023-02-22T06:26:54;33.53;;;19.40;;
16792;SDS011;8513;42.662;23.350;2023-02-22T06:29:21;37.93;;;21.30;;
16792;SDS011;8513;42.662;23.350;2023-02-22T06:31:48;37.07;;;21.20;;
16792;SDS011;8513;42.662;23.350;2023-02-22T06:34:14;30.47;;;21.33;;
16792;SDS011;8513;42.662;23.350;2023-02-22T06:36:39;30.53;;;20.33;;
16792;SDS011;8513;42.662;23.350;2023-02-22T06:39:06;27.83;;;18.27;;
16792;SDS011;8513;42.662;23.350;2023-02-22T06:41:38;22.43;;;15.50;;
16792;SDS011;8513;42.662;23.350;2023-02-22T06:44:04;25.93;;;14.93;;
16792;SDS011;8513;42.662;23.350;2023-02-22T06:46:29;20.77;;;12.67;;
16792;SDS011;8513;42.662;23.350;2023-02-22T06:48:55;19.83;;;11.70;;
16792;SDS011;8513;42.662;23.350;2023-02-22T06:51:23;16.70;;;11.17;;
16792;SDS011;8513;42.662;23.350;2023-02-22T06:53:50;16.80;;;11.60;;
16792;SDS011;8513;42.662;23.350;2023-02-22T06:56:15;17.20;;;9.90;;
16792;SDS011;8513;42.662;23.350;2023-02-22T06:58:41;20.87;;;11.33;;
16792;SDS011;8513;42.662;23.350;2023-02-22T07:01:06;14.57;;;9.77;;
16792;SDS011;8513;42.662;23.350;2023-02-22T07:03:33;13.53;;;9.43;;
16792;SDS011;8513;42.662;23.350;2023-02-22T07:05:59;20.33;;;9.87;;
16792;SDS011;8513;42.662;23.350;2023-02-22T07:08:26;14.17;;;9.63;;
16792;SDS011;8513;42.662;23.350;2023-02-22T07:10:52;17.00;;;9.57;;
16792;SDS011;8513;42.662;23.350;2023-02-22T07:13:17;15.87;;;8.97;;
16792;SDS011;8513;42.662;23.350;2023-02-22T07:15:43;17.13;;;8.93;;
16792;SDS011;8513;42.662;23.350;2023-02-22T07:18:09;18.73;;;8.03;;
16792;SDS011;8513;42.662;23.350;2023-02-22T07:20:35;25.17;;;13.67;;
16792;SDS011;8513;42.662;23.350;2023-02-22T07:23:01;21.50;;;10.73;;
16792;SDS011;8513;42.662;23.350;2023-02-22T07:25:27;13.70;;;8.73;;
16792;SDS011;8513;42.662;23.350;2023-02-22T07:27:53;15.07;;;7.53;;
16792;SDS011;8513;42.662;23.350;2023-02-22T07:30:29;11.73;;;6.93;;
16792;SDS011;8513;42.662;23.350;2023-02-22T07:32:57;12.77;;;7.37;;
16792;SDS011;8513;42.662;23.350;2023-02-22T07:35:24;10.55;;;6.00;;
16792;SDS011;8513;42.662;23.350;2023-02-22T07:37:52;10.13;;;6.77;;
16792;SDS011;8513;42.662;23.350;2023-02-22T07:40:19;12.27;;;6.88;;
16792;SDS011;8513;42.662;23.350;2023-02-22T07:42:51;12.10;;;6.90;;
16792;SDS011;8513;42.662;23.350;2023-02-22T07:45:22;13.57;;;7.55;;
16792;SDS011;8513;42.662;23.350;2023-02-22T07:47:49;13.13;;;7.33;;
16792;SDS011;8513;42.662;23.350;2023-02-22T07:50:15;13.38;;;7.38;;
16792;SDS011;8513;42.662;23.350;2023-02-22T07:52:49;13.35;;;7.47;;
16792;SDS011;8513;42.662;23.350;2023-02-22T07:55:17;16.15;;;7.82;;
16792;SDS011;8513;42.662;23.350;2023-02-22T07:57:45;14.90;;;8.07;;
16792;SDS011;8513;42.662;23.350;2023-02-22T08:00:11;12.38;;;8.02;;
16792;SDS011;8513;42.662;23.350;2023-02-22T08:02:39;16.42;;;8.57;;
16792;SDS011;8513;42.662;23.350;2023-02-22T08:05:06;12.38;;;7.80;;
16792;SDS011;8513;42.662;23.350;2023-02-22T08:07:35;12.18;;;8.20;;
16792;SDS011;8513;42.662;23.350;2023-02-22T08:10:01;13.70;;;8.80;;
16792;SDS011;8513;42.662;23.350;2023-02-22T08:12:30;15.32;;;8.35;;
16792;SDS011;8513;42.662;23.350;2023-02-22T08:15:00;10.38;;;8.73;;
16792;SDS011;8513;42.662;23.350;2023-02-22T08:17:27;15.73;;;8.35;;
16792;SDS011;8513;42.662;23.350;2023-02-22T08:19:52;19.27;;;9.52;;
16792;SDS011;8513;42.662;23.350;2023-02-22T08:22:18;19.70;;;9.70;;
16792;SDS011;8513;42.662;23.350;2023-02-22T08:24:43;15.95;;;9.73;;
16792;SDS011;8513;42.662;23.350;2023-02-22T08:27:09;18.50;;;10.43;;
16792;SDS011;8513;42.662;23.350;2023-02-22T08:29:34;18.97;;;11.03;;
16792;SDS011;8513;42.662;23.350;2023-02-22T08:32:00;19.27;;;11.43;;
16792;SDS011;8513;42.662;23.350;2023-02-22T08:34:25;20.08;;;10.68;;
16792;SDS011;8513;42.662;23.350;2023-02-22T08:36:51;18.00;;;11.20;;
16792;SDS011;8513;42.662;23.350;2023-02-22T08:39:17;16.05;;;11.00;;
16792;SDS011;8513;42.662;23.350;2023-02-22T08:41:42;20.75;;;11.85;;
16792;SDS011;8513;42.662;23.350;2023-02-22T08:44:07;17.50;;;10.95;;
16792;SDS011;8513;42.662;23.350;2023-02-22T08:46:33;20.20;;;11.88;;
16792;SDS011;8513;42.662;23.350;2023-02-22T08:48:58;19.15;;;12.60;;
16792;SDS011;8513;42.662;23.350;2023-02-22T08:51:24;22.33;;;12.25;;
16792;SDS011;8513;42.662;23.350;2023-02-22T08:53:50;22.83;;;12.60;;
16792;SDS011;8513;42.662;23.350;2023-02-22T08:56:17;15.60;;;7.80;;
16792;SDS011;8513;42.662;23.350;2023-02-22T08:58:43;11.82;;;7.95;;
16792;SDS011;8513;42.662;23.350;2023-02-22T09:01:08;10.77;;;8.15;;
16792;SDS011;8513;42.662;23.350;2023-02-22T09:03:34;8.13;;;7.07;;
16792;SDS011;8513;42.662;23.350;2023-02-22T09:05:59;10.75;;;5.93;;
16792;SDS011;8513;42.662;23.350;2023-02-22T09:08:25;8.55;;;5.25;;
16792;SDS011;8513;42.662;23.350;2023-02-22T09:10:50;7.75;;;5.20;;
16792;SDS011;8513;42.662;23.350;2023-02-22T09:13:16;7.53;;;4.18;;
16792;SDS011;8513;42.662;23.350;2023-02-22T09:15:41;8.32;;;5.30;;
16792;SDS011;8513;42.662;23.350;2023-02-22T09:18:08;10.63;;;5.63;;
16792;SDS011;8513;42.662;23.350;2023-02-22T09:20:35;7.28;;;4.72;;
16792;SDS011;8513;42.662;23.350;2023-02-22T09:23:01;8.05;;;5.78;;
16792;SDS011;8513;42.662;23.350;2023-02-22T09:25:29;7.95;;;5.45;;
16792;SDS011;8513;42.662;23.350;2023-02-22T09:27:55;8.32;;;5.97;;
16792;SDS011;8513;42.662;23.350;2023-02-22T09:30:29;8.30;;;5.63;;
16792;SDS011;8513;42.662;23.350;2023-02-22T09:32:57;8.07;;;5.85;;
16792;SDS011;8513;42.662;23.350;2023-02-22T09:35:25;9.77;;;6.07;;
16792;SDS011;8513;42.662;23.350;2023-02-22T09:37:57;10.85;;;6.18;;
16792;SDS011;8513;42.662;23.350;2023-02-22T09:40:28;9.75;;;5.28;;
16792;SDS011;8513;42.662;23.350;2023-02-22T09:45:37;6.72;;;5.20;;
16792;SDS011;8513;42.662;23.350;2023-02-22T09:48:05;8.55;;;5.18;;
16792;SDS011;8513;42.662;23.350;2023-02-22T09:50:36;7.00;;;4.13;;
16792;SDS011;8513;42.662;23.350;2023-02-22T09:55:47;7.18;;;3.60;;
16792;SDS011;8513;42.662;23.350;2023-02-22T09:58:24;5.40;;;3.60;;
16792;SDS011;8513;42.662;23.350;2023-02-22T10:09:31;3.58;;;2.95;;
16792;SDS011;8513;42.662;23.350;2023-02-22T10:12:06;3.10;;;2.78;;
16792;SDS011;8513;42.662;23.350;2023-02-22T10:17:35;3.92;;;3.25;;
16792;SDS011;8513;42.662;23.350;2023-02-22T10:20:24;3.47;;;3.17;;
16792;SDS011;8513;42.662;23.350;2023-02-22T10:23:17;4.20;;;2.60;;
16792;SDS011;8513;42.662;23.350;2023-02-22T10:25:51;3.10;;;2.80;;
16792;SDS011;8513;42.662;23.350;2023-02-22T10:28:25;5.53;;;3.22;;
16792;SDS011;8513;42.662;23.350;2023-02-22T10:30:57;3.92;;;3.58;;
16792;SDS011;8513;42.662;23.350;2023-02-22T10:33:28;5.82;;;4.00;;
16792;SDS011;8513;42.662;23.350;2023-02-22T10:35:57;4.80;;;3.70;;
16792;SDS011;8513;42.662;23.350;2023-02-22T10:38:33;4.10;;;3.00;;
16792;SDS011;8513;42.662;23.350;2023-02-22T10:43:40;6.38;;;3.80;;
16792;SDS011;8513;42.662;23.350;2023-02-22T10:46:09;6.18;;;3.92;;
16792;SDS011;8513;42.662;23.350;2023-02-22T10:48:40;5.95;;;3.47;;
16792;SDS011;8513;42.662;23.350;2023-02-22T10:51:09;3.90;;;3.38;;
16792;SDS011;8513;42.662;23.350;2023-02-22T10:53:35;4.45;;;3.63;;
16792;SDS011;8513;42.662;23.350;2023-02-22T10:56:20;5.45;;;3.67;;
16792;SDS011;8513;42.662;23.350;2023-02-22T11:04:14;4.72;;;3.58;;
16792;SDS011;8513;42.662;23.350;2023-02-22T11:06:43;6.80;;;3.55;;
16792;SDS011;8513;42.662;23.350;2023-02-22T11:09:20;5.75;;;3.00;;
16792;SDS011;8513;42.662;23.350;2023-02-22T11:11:47;5.43;;;4.07;;
16792;SDS011;8513;42.662;23.350;2023-02-22T11:14:27;4.75;;;3.70;;
16792;SDS011;8513;42.662;23.350;2023-02-22T11:16:54;6.07;;;3.65;;
16792;SDS011;8513;42.662;23.350;2023-02-22T11:21:49;6.75;;;2.83;;
16792;SDS011;8513;42.662;23.350;2023-02-22T11:24:17;3.20;;;2.85;;
16792;SDS011;8513;42.662;23.350;2023-02-22T11:26:46;5.25;;;2.72;;
16792;SDS011;8513;42.662;23.350;2023-02-22T11:32:14;4.07;;;3.15;;
16792;SDS011;8513;42.662;23.350;2023-02-22T11:34:47;5.28;;;3.13;;
16792;SDS011;8513;42.662;23.350;2023-02-22T11:42:43;5.15;;;3.03;;
16792;SDS011;8513;42.662;23.350;2023-02-22T11:50:20;6.28;;;2.72;;
16792;SDS011;8513;42.662;23.350;2023-02-22T11:52:54;5.28;;;2.95;;
16792;SDS011;8513;42.662;23.350;2023-02-22T12:01:04;2.88;;;2.40;;
16792;SDS011;8513;42.662;23.350;2023-02-22T12:11:38;4.35;;;2.63;;
16792;SDS011;8513;42.662;23.350;2023-02-22T12:14:51;6.03;;;2.38;;
16792;SDS011;8513;42.662;23.350;2023-02-22T12:20:22;2.88;;;2.58;;
16792;SDS011;8513;42.662;23.350;2023-02-22T12:22:57;2.30;;;2.10;;
16792;SDS011;8513;42.662;23.350;2023-02-22T12:26:06;2.92;;;2.30;;
16792;SDS011;8513;42.662;23.350;2023-02-22T12:28:54;3.90;;;3.05;;
16792;SDS011;8513;42.662;23.350;2023-02-22T12:34:00;2.97;;;2.38;;
16792;SDS011;8513;42.662;23.350;2023-02-22T12:36:55;3.70;;;2.85;;
16792;SDS011;8513;42.662;23.350;2023-02-22T12:39:46;3.53;;;3.08;;
16792;SDS011;8513;42.662;23.350;2023-02-22T12:45:19;5.25;;;2.60;;
16792;SDS011;8513;42.662;23.350;2023-02-22T12:47:51;2.72;;;2.53;;
16792;SDS011;8513;42.662;23.350;2023-02-22T12:50:26;3.33;;;3.03;;
16792;SDS011;8513;42.662;23.350;2023-02-22T12:53:03;3.50;;;3.20;;
16792;SDS011;8513;42.662;23.350;2023-02-22T12:55:41;3.55;;;2.90;;
16792;SDS011;8513;42.662;23.350;2023-02-22T12:58:22;3.17;;;2.80;;
16792;SDS011;8513;42.662;23.350;2023-02-22T13:00:59;4.78;;;4.32;;
16792;SDS011;8513;42.662;23.350;2023-02-22T13:03:55;5.30;;;3.00;;
16792;SDS011;8513;42.662;23.350;2023-02-22T13:06:27;3.53;;;3.22;;
16792;SDS011;8513;42.662;23.350;2023-02-22T13:11:49;3.95;;;2.90;;
16792;SDS011;8513;42.662;23.350;2023-02-22T13:27:48;3.20;;;2.90;;
16792;SDS011;8513;42.662;23.350;2023-02-22T13:30:19;4.68;;;3.42;;
16792;SDS011;8513;42.662;23.350;2023-02-22T13:33:14;4.15;;;3.85;;
16792;SDS011;8513;42.662;23.350;2023-02-22T13:52:42;3.60;;;3.25;;
16792;SDS011;8513;42.662;23.350;2023-02-22T13:55:14;4.68;;;3.92;;
16792;SDS011;8513;42.662;23.350;2023-02-22T13:58:02;4.78;;;3.72;;
16792;SDS011;8513;42.662;23.350;2023-02-22T14:00:39;5.18;;;4.70;;
16792;SDS011;8513;42.662;23.350;2023-02-22T14:13:14;3.80;;;3.50;;
16792;SDS011;8513;42.662;23.350;2023-02-22T14:18:22;4.25;;;3.63;;
16792;SDS011;8513;42.662;23.350;2023-02-22T14:21:05;5.65;;;3.33;;
16792;SDS011;8513;42.662;23.350;2023-02-22T14:37:08;5.35;;;4.32;;
16792;SDS011;8513;42.662;23.350;2023-02-22T14:39:48;4.57;;;4.20;;
16792;SDS011;8513;42.662;23.350;2023-02-22T14:42:18;5.28;;;4.88;;
16792;SDS011;8513;42.662;23.350;2023-02-22T14:50:13;4.95;;;4.45;;
16792;SDS011;8513;42.662;23.350;2023-02-22T14:52:47;4.90;;;4.60;;
16792;SDS011;8513;42.662;23.350;2023-02-22T14:55:24;5.45;;;5.05;;
16792;SDS011;8513;42.662;23.350;2023-02-22T15:00:46;4.57;;;4.15;;
16792;SDS011;8513;42.662;23.350;2023-02-22T15:05:48;4.32;;;3.92;;
16792;SDS011;8513;42.662;23.350;2023-02-22T15:08:16;4.78;;;3.97;;
16792;SDS011;8513;42.662;23.350;2023-02-22T15:10:51;4.55;;;4.00;;
16792;SDS011;8513;42.662;23.350;2023-02-22T15:13:19;4.82;;;4.30;;
16792;SDS011;8513;42.662;23.350;2023-02-22T15:18:36;4.90;;;4.05;;
16792;SDS011;8513;42.662;23.350;2023-02-22T15:21:15;6.25;;;4.30;;
16792;SDS011;8513;42.662;23.350;2023-02-22T15:23:57;4.82;;;4.30;;
16792;SDS011;8513;42.662;23.350;2023-02-22T15:26:26;4.85;;;4.15;;
16792;SDS011;8513;42.662;23.350;2023-02-22T15:28:59;5.10;;;4.05;;
16792;SDS011;8513;42.662;23.350;2023-02-22T15:31:30;4.28;;;3.88;;
16792;SDS011;8513;42.662;23.350;2023-02-22T15:34:08;6.85;;;4.03;;
16792;SDS011;8513;42.662;23.350;2023-02-22T15:36:42;6.63;;;4.10;;
16792;SDS011;8513;42.662;23.350;2023-02-22T15:41:44;4.80;;;4.28;;
16792;SDS011;8513;42.662;23.350;2023-02-22T15:44:10;4.53;;;4.13;;
16792;SDS011;8513;42.662;23.350;2023-02-22T15:46:39;5.90;;;4.65;;
16792;SDS011;8513;42.662;23.350;2023-02-22T15:51:39;5.28;;;4.25;;
16792;SDS011;8513;42.662;23.350;2023-02-22T15:54:07;5.88;;;5.07;;
16792;SDS011;8513;42.662;23.350;2023-02-22T15:56:33;5.72;;;4.45;;
16792;SDS011;8513;42.662;23.350;2023-02-22T15:59:13;5.45;;;4.40;;
16792;SDS011;8513;42.662;23.350;2023-02-22T16:01:52;8.27;;;4.80;;
16792;SDS011;8513;42.662;23.350;2023-02-22T16:04:19;6.68;;;4.90;;
16792;SDS011;8513;42.662;23.350;2023-02-22T16:06:47;6.25;;;4.65;;
16792;SDS011;8513;42.662;23.350;2023-02-22T16:09:16;6.47;;;4.47;;
16792;SDS011;8513;42.662;23.350;2023-02-22T16:11:50;6.53;;;5.18;;
16792;SDS011;8513;42.662;23.350;2023-02-22T16:19:50;8.18;;;6.15;;
16792;SDS011;8513;42.662;23.350;2023-02-22T16:22:35;15.68;;;7.13;;
16792;SDS011;8513;42.662;23.350;2023-02-22T16:27:46;10.55;;;7.20;;
16792;SDS011;8513;42.662;23.350;2023-02-22T16:30:25;10.55;;;7.35;;
16792;SDS011;8513;42.662;23.350;2023-02-22T16:32:59;11.02;;;7.05;;
16792;SDS011;8513;42.662;23.350;2023-02-22T16:35:29;7.47;;;5.95;;
16792;SDS011;8513;42.662;23.350;2023-02-22T16:38:00;8.18;;;6.88;;
16792;SDS011;8513;42.662;23.350;2023-02-22T16:40:32;11.85;;;7.30;;
16792;SDS011;8513;42.662;23.350;2023-02-22T16:43:03;8.65;;;6.95;;
16792;SDS011;8513;42.662;23.350;2023-02-22T16:45:31;14.88;;;7.63;;
16792;SDS011;8513;42.662;23.350;2023-02-22T16:47:57;12.65;;;7.78;;
16792;SDS011;8513;42.662;23.350;2023-02-22T16:50:24;9.10;;;6.90;;
16792;SDS011;8513;42.662;23.350;2023-02-22T16:52:49;10.73;;;8.02;;
16792;SDS011;8513;42.662;23.350;2023-02-22T16:55:18;16.85;;;8.23;;
16792;SDS011;8513;42.662;23.350;2023-02-22T16:57:44;12.68;;;8.10;;
16792;SDS011;8513;42.662;23.350;2023-02-22T17:00:14;10.05;;;7.68;;
16792;SDS011;8513;42.662;23.350;2023-02-22T17:02:41;11.80;;;7.50;;
16792;SDS011;8513;42.662;23.350;2023-02-22T17:05:07;11.23;;;6.80;;
16792;SDS011;8513;42.662;23.350;2023-02-22T17:07:36;13.35;;;6.80;;
16792;SDS011;8513;42.662;23.350;2023-02-22T17:10:04;12.15;;;7.05;;
16792;SDS011;8513;42.662;23.350;2023-02-22T17:12:30;11.00;;;6.70;;
16792;SDS011;8513;42.662;23.350;2023-02-22T17:14:56;8.00;;;6.00;;
16792;SDS011;8513;42.662;23.350;2023-02-22T17:17:21;11.18;;;6.78;;
16792;SDS011;8513;42.662;23.350;2023-02-22T17:19:47;9.98;;;6.57;;
16792;SDS011;8513;42.662;23.350;2023-02-22T17:22:19;11.10;;;6.95;;
16792;SDS011;8513;42.662;23.350;2023-02-22T17:24:46;9.93;;;6.40;;
16792;SDS011;8513;42.662;23.350;2023-02-22T17:27:12;8.25;;;5.85;;
16792;SDS011;8513;42.662;23.350;2023-02-22T17:29:38;13.27;;;6.20;;
16792;SDS011;8513;42.662;23.350;2023-02-22T17:32:09;11.82;;;6.82;;
16792;SDS011;8513;42.662;23.350;2023-02-22T17:34:35;7.72;;;5.60;;
16792;SDS011;8513;42.662;23.350;2023-02-22T17:37:00;7.05;;;5.82;;
16792;SDS011;8513;42.662;23.350;2023-02-22T17:39:26;8.57;;;5.45;;
16792;SDS011;8513;42.662;23.350;2023-02-22T17:41:51;9.77;;;5.85;;
16792;SDS011;8513;42.662;23.350;2023-02-22T17:44:21;11.23;;;6.43;;
16792;SDS011;8513;42.662;23.350;2023-02-22T17:46:47;11.10;;;6.65;;
16792;SDS011;8513;42.662;23.350;2023-02-22T17:49:12;13.25;;;7.70;;
16792;SDS011;8513;42.662;23.350;2023-02-22T17:51:38;9.45;;;7.18;;
16792;SDS011;8513;42.662;23.350;2023-02-22T17:54:05;12.32;;;7.60;;
16792;SDS011;8513;42.662;23.350;2023-02-22T17:56:30;11.23;;;6.78;;
16792;SDS011;8513;42.662;23.350;2023-02-22T17:58:56;12.18;;;6.97;;
16792;SDS011;8513;42.662;23.350;2023-02-22T18:01:26;11.50;;;7.07;;
16792;SDS011;8513;42.662;23.350;2023-02-22T18:03:54;8.63;;;6.60;;
16792;SDS011;8513;42.662;23.350;2023-02-22T18:06:22;10.45;;;6.40;;